Time;durP1;ratioP1;P1;durP2;ratioP2;P2;SDS_P1;SDS_P2;PMS_P1;PMS_P2;Temp;Humidity;BMP_temperature;BMP_pressure;BME280_temperature;BME280_humidity;BME280_pressure;Samples;Min_cycle;Max_cycle;Signal;HPM_P1;HPM_P2
2021/10/31 00:01:29;;;;;;;40.00;23.85;;;9.80;99.90;;;;;;5020476;28;20037;-76
2021/10/31 00:03:56;;;;;;;46.92;25.45;;;9.90;99.90;;;;;;5008266;28;20275;-77
2021/10/31 00:06:23;;;;;;;49.88;26.27;;;9.90;99.90;;;;;;5040176;28;20046;-74
2021/10/31 00:08:50;;;;;;;43.83;23.63;;;10.00;99.90;;;;;;5015324;28;20053;-76
2021/10/31 00:11:18;;;;;;;43.35;24.77;;;9.90;99.90;;;;;;5027556;28;20050;-77
2021/10/31 00:13:45;;;;;;;47.85;27.25;;;10.00;99.90;;;;;;5027274;28;20503;-78
2021/10/31 00:16:12;;;;;;;46.25;24.38;;;10.20;99.90;;;;;;5025125;28;20462;-76
2021/10/31 00:18:39;;;;;;;41.33;24.02;;;10.00;99.90;;;;;;5026734;28;20057;-76
2021/10/31 00:21:06;;;;;;;41.47;25.00;;;10.00;99.90;;;;;;5027487;28;20499;-77
2021/10/31 00:23:33;;;;;;;43.45;23.50;;;10.00;99.90;;;;;;5025474;28;20219;-78
2021/10/31 00:26:01;;;;;;;39.58;23.08;;;10.00;99.90;;;;;;5025302;28;20061;-76
2021/10/31 00:28:28;;;;;;;39.08;23.10;;;10.00;99.90;;;;;;5009183;28;20057;-75
2021/10/31 00:30:55;;;;;;;39.45;23.55;;;10.10;99.90;;;;;;5026847;28;20294;-77
2021/10/31 00:33:21;;;;;;;36.72;22.75;;;10.10;99.90;;;;;;5027196;28;20034;-75
2021/10/31 00:35:48;;;;;;;37.00;23.23;;;10.20;99.90;;;;;;5015873;28;20520;-78
2021/10/31 00:38:15;;;;;;;37.90;21.65;;;10.20;99.90;;;;;;5018375;28;20115;-75
2021/10/31 00:40:44;;;;;;;39.00;22.90;;;10.20;99.90;;;;;;5011656;28;20577;-74
2021/10/31 00:43:11;;;;;;;39.80;23.17;;;10.20;99.90;;;;;;5027262;28;20057;-76
2021/10/31 00:45:41;;;;;;;39.65;22.60;;;10.20;99.90;;;;;;5009323;28;20071;-75
2021/10/31 00:48:09;;;;;;;39.25;24.73;;;10.20;99.90;;;;;;5025275;28;20068;-75
2021/10/31 00:50:37;;;;;;;39.65;22.27;;;10.20;99.90;;;;;;5027161;28;20095;-76
2021/10/31 00:53:04;;;;;;;36.75;21.50;;;10.20;99.90;;;;;;5026822;28;20558;-78
2021/10/31 00:55:31;;;;;;;40.95;23.10;;;10.20;99.90;;;;;;5021996;28;20467;-76
2021/10/31 00:57:59;;;;;;;38.25;23.42;;;10.20;99.90;;;;;;5006635;28;20050;-77
2021/10/31 01:00:26;;;;;;;38.03;23.10;;;10.20;99.90;;;;;;4986914;28;20069;-77
2021/10/31 01:02:54;;;;;;;43.55;22.13;;;10.10;99.90;;;;;;4972235;28;20077;-75
2021/10/31 01:05:26;;;;;;;43.63;22.48;;;10.10;99.90;;;;;;5008846;28;20061;-74
2021/10/31 01:07:59;;;;;;;39.95;21.73;;;10.10;99.90;;;;;;5024806;28;20057;-74
2021/10/31 01:10:48;;;;;;;38.22;21.63;;;10.10;99.90;;;;;;5024726;28;20053;-76
2021/10/31 01:13:31;;;;;;;43.17;23.00;;;10.10;99.90;;;;;;5006899;28;20534;-79
2021/10/31 01:16:12;;;;;;;44.83;24.13;;;10.10;99.90;;;;;;5006060;28;20115;-76
2021/10/31 01:19:01;;;;;;;44.03;24.40;;;10.10;99.90;;;;;;5005144;28;20081;-75
2021/10/31 01:21:52;;;;;;;39.92;23.80;;;10.10;99.90;;;;;;5006403;28;20054;-75
2021/10/31 01:24:28;;;;;;;41.88;24.45;;;10.10;99.90;;;;;;5010932;28;20053;-77
2021/10/31 01:27:15;;;;;;;37.13;22.63;;;10.10;99.90;;;;;;5024963;28;20527;-78
2021/10/31 01:30:05;;;;;;;38.95;23.35;;;10.10;99.90;;;;;;5020762;28;20054;-75
2021/10/31 01:33:10;;;;;;;44.55;25.27;;;10.10;99.90;;;;;;5013226;28;20050;-74
2021/10/31 01:36:14;;;;;;;43.25;24.95;;;10.10;99.90;;;;;;5019571;28;20064;-77
2021/10/31 01:38:45;;;;;;;41.72;24.58;;;10.10;99.90;;;;;;5019174;28;20103;-75
2021/10/31 01:41:15;;;;;;;40.80;23.05;;;10.20;99.90;;;;;;5004217;28;20046;-75
2021/10/31 01:44:31;;;;;;;44.78;24.38;;;10.20;99.90;;;;;;4986981;28;20348;-74
2021/10/31 01:47:05;;;;;;;47.28;24.85;;;10.30;99.90;;;;;;4956772;28;20105;-75
2021/10/31 01:49:41;;;;;;;46.65;24.77;;;10.30;99.90;;;;;;5020011;28;20057;-78
2021/10/31 01:52:20;;;;;;;39.60;24.00;;;10.20;99.90;;;;;;5027589;28;20408;-77
2021/10/31 01:54:54;;;;;;;44.90;26.50;;;10.20;99.90;;;;;;5045048;28;20044;-76
2021/10/31 01:57:23;;;;;;;43.50;24.73;;;10.20;99.90;;;;;;5028138;28;20045;-75
2021/10/31 01:59:58;;;;;;;39.65;23.30;;;10.20;99.90;;;;;;5046573;28;20048;-78
2021/10/31 02:02:25;;;;;;;;;;;10.30;99.90;;;;;;5046029;28;20060;-77
2021/10/31 02:04:54;;;;;;;47.80;26.70;;;10.30;99.90;;;;;;5045029;28;20224;-75
2021/10/31 02:07:21;;;;;;;45.63;25.83;;;10.30;99.90;;;;;;5027925;28;20056;-76
2021/10/31 02:09:50;;;;;;;46.80;25.88;;;10.30;99.90;;;;;;5045417;28;20110;-79
2021/10/31 02:12:20;;;;;;;41.35;26.17;;;10.40;99.90;;;;;;5008187;28;20041;-74
2021/10/31 02:14:48;;;;;;;48.95;27.98;;;10.30;99.90;;;;;;5045789;28;20053;-76
2021/10/31 02:17:16;;;;;;;49.22;28.67;;;10.30;99.90;;;;;;5042534;28;20049;-75
2021/10/31 02:19:46;;;;;;;50.25;27.88;;;10.30;99.90;;;;;;5029348;28;20041;-75
2021/10/31 02:22:26;;;;;;;46.75;28.10;;;10.20;99.90;;;;;;5029696;28;20052;-80
2021/10/31 02:24:53;;;;;;;51.28;29.45;;;10.20;99.90;;;;;;5046507;28;20053;-79
2021/10/31 02:27:23;;;;;;;49.58;26.88;;;10.20;99.90;;;;;;5045657;28;20049;-78
2021/10/31 02:29:56;;;;;;;55.80;28.73;;;10.30;99.90;;;;;;5045073;28;20045;-78
2021/10/31 02:32:26;;;;;;;50.50;29.00;;;10.30;99.90;;;;;;5040070;28;20553;-80
2021/10/31 02:34:54;;;;;;;51.03;29.58;;;10.30;99.90;;;;;;5028289;28;20435;-77
2021/10/31 02:37:25;;;;;;;51.95;29.10;;;10.30;99.90;;;;;;5027204;28;20049;-78
2021/10/31 02:39:54;;;;;;;51.45;29.13;;;10.30;99.90;;;;;;5040622;28;20048;-76
2021/10/31 02:42:21;;;;;;;49.60;28.80;;;10.30;99.90;;;;;;5011033;28;20072;-78
2021/10/31 02:44:48;;;;;;;53.53;30.13;;;10.30;99.90;;;;;;5049552;28;20084;-77
2021/10/31 02:47:24;;;;;;;51.53;29.90;;;10.30;99.90;;;;;;5045918;28;20315;-77
2021/10/31 02:49:52;;;;;;;50.65;28.63;;;10.30;99.90;;;;;;5028319;28;20045;-76
2021/10/31 02:52:39;;;;;;;52.40;27.30;;;10.20;99.90;;;;;;5046048;28;20534;-76
2021/10/31 02:55:27;;;;;;;48.17;27.45;;;10.20;99.90;;;;;;5032735;28;20083;-76
2021/10/31 02:58:00;;;;;;;48.33;27.35;;;10.10;99.90;;;;;;5049684;28;20045;-79
2021/10/31 03:00:29;;;;;;;50.28;27.00;;;10.10;99.90;;;;;;5048284;28;20052;-76
2021/10/31 03:02:57;;;;;;;46.03;27.17;;;10.20;99.90;;;;;;5030829;28;20151;-76
2021/10/31 03:05:25;;;;;;;47.35;26.52;;;10.20;99.90;;;;;;5013978;28;20098;-76
2021/10/31 03:07:55;;;;;;;44.80;25.95;;;10.30;99.90;;;;;;5048414;28;20442;-77
2021/10/31 03:10:22;;;;;;;48.42;26.00;;;10.20;99.90;;;;;;5028569;28;20300;-76
2021/10/31 03:12:50;;;;;;;48.65;26.75;;;10.30;99.90;;;;;;5022832;28;20083;-76
2021/10/31 03:15:17;;;;;;;46.90;26.65;;;10.30;99.90;;;;;;5039122;28;20036;-81
2021/10/31 03:17:44;;;;;;;47.90;27.02;;;10.20;99.90;;;;;;5048589;28;20580;-76
2021/10/31 03:20:12;;;;;;;48.58;27.10;;;10.20;99.90;;;;;;5029577;28;20053;-74
2021/10/31 03:22:39;;;;;;;44.70;25.30;;;10.30;99.90;;;;;;5048357;28;20492;-78
2021/10/31 03:25:07;;;;;;;44.97;26.27;;;10.30;99.90;;;;;;5030173;28;20094;-76
2021/10/31 03:27:33;;;;;;;47.40;25.73;;;10.30;99.90;;;;;;5047660;28;20052;-77
2021/10/31 03:30:00;;;;;;;42.15;24.77;;;10.30;99.90;;;;;;5028014;28;20123;-76
2021/10/31 03:32:27;;;;;;;48.20;27.80;;;10.20;99.90;;;;;;5047383;28;20084;-75
2021/10/31 03:34:54;;;;;;;43.53;25.95;;;10.20;99.90;;;;;;5044431;28;20041;-74
2021/10/31 03:37:21;;;;;;;46.67;25.92;;;10.30;99.90;;;;;;5029136;28;20053;-75
2021/10/31 03:39:48;;;;;;;45.85;26.27;;;10.30;99.90;;;;;;5027648;28;20102;-75
2021/10/31 03:42:14;;;;;;;46.47;26.02;;;10.30;99.90;;;;;;5029602;28;20495;-77
2021/10/31 03:44:48;;;;;;;44.42;25.88;;;10.30;99.90;;;;;;5016562;28;20381;-77
2021/10/31 03:47:19;;;;;;;43.17;25.05;;;10.30;99.90;;;;;;5029082;28;20359;-76
2021/10/31 03:49:46;;;;;;;47.38;26.23;;;10.20;99.90;;;;;;5027994;28;20052;-76
2021/10/31 03:52:13;;;;;;;44.00;25.95;;;10.10;99.90;;;;;;5028476;28;20513;-77
2021/10/31 03:54:40;;;;;;;47.10;26.50;;;10.20;99.90;;;;;;5028354;28;20052;-77
2021/10/31 03:57:07;;;;;;;46.65;26.85;;;10.20;99.90;;;;;;5047009;28;20063;-76
2021/10/31 03:59:34;;;;;;;46.58;26.70;;;10.30;99.90;;;;;;5010995;28;20146;-75
2021/10/31 04:02:02;;;;;;;48.53;26.20;;;10.30;99.90;;;;;;5046549;28;20122;-77
2021/10/31 04:04:29;;;;;;;46.63;25.70;;;10.30;99.90;;;;;;5047416;28;20072;-75
2021/10/31 04:06:56;;;;;;;44.88;26.52;;;10.30;99.90;;;;;;5028342;28;20095;-77
2021/10/31 04:09:23;;;;;;;39.53;23.90;;;10.30;99.90;;;;;;5028981;28;20052;-77
2021/10/31 04:11:49;;;;;;;44.83;26.25;;;10.30;99.90;;;;;;5034733;28;20407;-78
2021/10/31 04:14:16;;;;;;;43.15;25.80;;;10.20;99.90;;;;;;5046811;28;20055;-78
2021/10/31 04:16:44;;;;;;;47.03;26.35;;;10.20;99.90;;;;;;5012366;28;20076;-78
2021/10/31 04:19:11;;;;;;;51.72;27.48;;;10.20;99.90;;;;;;5047401;28;20547;-74
2021/10/31 04:21:38;;;;;;;47.50;26.90;;;10.10;99.90;;;;;;5045808;28;20072;-78
2021/10/31 04:24:05;;;;;;;45.38;26.65;;;10.10;99.90;;;;;;5025606;28;20048;-77
2021/10/31 04:26:32;;;;;;;44.97;25.67;;;10.20;99.90;;;;;;5038988;28;20059;-77
2021/10/31 04:28:59;;;;;;;45.90;26.60;;;10.20;99.90;;;;;;5045464;28;20065;-79
2021/10/31 04:31:26;;;;;;;43.22;25.60;;;10.10;99.90;;;;;;5026638;28;20496;-77
2021/10/31 04:33:53;;;;;;;43.28;26.90;;;10.10;99.90;;;;;;5026536;28;20100;-80
2021/10/31 04:36:20;;;;;;;44.88;25.35;;;10.20;99.90;;;;;;4994247;28;20057;-78
2021/10/31 04:38:52;;;;;;;43.65;24.92;;;10.10;99.90;;;;;;5041128;28;20389;-78
2021/10/31 04:41:19;;;;;;;41.15;24.10;;;10.20;99.90;;;;;;5042675;28;20591;-79
2021/10/31 04:43:46;;;;;;;44.80;26.00;;;10.30;99.90;;;;;;5028846;28;20102;-78
2021/10/31 04:46:12;;;;;;;43.63;25.45;;;10.20;99.90;;;;;;5046232;28;20059;-77
2021/10/31 04:48:39;;;;;;;43.15;24.55;;;10.30;99.90;;;;;;5029052;28;20052;-78
2021/10/31 04:51:06;;;;;;;44.00;24.85;;;10.40;99.90;;;;;;5045969;28;20057;-77
2021/10/31 04:53:33;;;;;;;41.58;25.15;;;10.40;99.90;;;;;;5029376;28;20053;-78
2021/10/31 04:56:03;;;;;;;41.58;24.63;;;10.30;99.90;;;;;;5012321;28;20060;-77
2021/10/31 04:58:29;;;;;;;41.30;24.48;;;10.30;99.90;;;;;;5027340;28;20469;-77
2021/10/31 05:00:56;;;;;;;42.85;24.30;;;10.30;99.90;;;;;;5045947;28;20572;-78
2021/10/31 05:03:24;;;;;;;40.90;23.95;;;10.30;99.90;;;;;;5029239;28;20053;-78
2021/10/31 05:05:51;;;;;;;39.45;23.40;;;10.30;99.90;;;;;;5045955;28;20107;-77
2021/10/31 05:08:18;;;;;;;38.28;21.80;;;10.30;99.90;;;;;;5027978;28;20423;-76
2021/10/31 05:10:44;;;;;;;36.10;22.17;;;10.20;99.90;;;;;;5010529;28;20056;-77
2021/10/31 05:13:11;;;;;;;42.38;23.75;;;10.30;99.90;;;;;;5046028;28;20053;-75
2021/10/31 05:15:39;;;;;;;36.10;22.90;;;10.30;99.90;;;;;;5010733;28;20577;-77
2021/10/31 05:18:06;;;;;;;38.28;23.27;;;10.20;99.90;;;;;;5046555;28;20057;-77
2021/10/31 05:20:33;;;;;;;38.38;21.75;;;10.20;99.90;;;;;;5030119;28;20586;-74
2021/10/31 05:23:00;;;;;;;36.25;22.55;;;10.20;99.90;;;;;;5028805;28;20565;-76
2021/10/31 05:25:26;;;;;;;38.42;23.35;;;10.30;99.90;;;;;;5027569;28;20040;-78
2021/10/31 05:27:53;;;;;;;41.75;23.98;;;10.20;99.90;;;;;;5027719;28;20419;-76
2021/10/31 05:30:20;;;;;;;40.65;24.00;;;10.20;99.90;;;;;;5019558;28;20068;-77
2021/10/31 05:32:48;;;;;;;43.33;24.40;;;10.20;99.90;;;;;;5045699;28;20052;-76
2021/10/31 05:35:14;;;;;;;36.83;22.77;;;10.20;99.90;;;;;;5026032;28;20057;-77
2021/10/31 05:37:44;;;;;;;42.08;25.52;;;10.20;99.90;;;;;;5009025;28;20056;-77
2021/10/31 05:40:15;;;;;;;37.83;23.88;;;10.20;99.90;;;;;;5043716;28;20549;-76
2021/10/31 05:42:42;;;;;;;40.25;24.17;;;10.20;99.90;;;;;;5010961;28;20045;-76
2021/10/31 05:45:11;;;;;;;37.67;23.35;;;10.20;99.90;;;;;;5027148;28;20048;-75
2021/10/31 05:47:39;;;;;;;45.30;26.25;;;10.20;99.90;;;;;;5045575;28;20067;-76
2021/10/31 05:50:07;;;;;;;41.85;25.02;;;10.20;99.90;;;;;;5027443;28;20183;-76
2021/10/31 05:52:35;;;;;;;43.22;26.45;;;10.20;99.90;;;;;;5046034;28;20048;-76
2021/10/31 05:55:04;;;;;;;47.65;27.40;;;10.10;99.90;;;;;;5028254;28;20053;-78
2021/10/31 05:57:31;;;;;;;48.75;26.98;;;10.20;99.90;;;;;;5010986;28;20143;-80
2021/10/31 05:59:57;;;;;;;47.00;26.67;;;10.20;99.90;;;;;;5045438;28;20487;-77
2021/10/31 06:02:24;;;;;;;53.35;28.63;;;10.20;99.90;;;;;;5046401;28;20052;-76
2021/10/31 06:04:51;;;;;;;50.83;27.25;;;10.20;99.90;;;;;;5046438;28;20122;-75
2021/10/31 06:07:18;;;;;;;52.75;28.48;;;10.10;99.90;;;;;;5012427;28;20458;-75
2021/10/31 06:09:45;;;;;;;55.25;29.30;;;10.10;99.90;;;;;;5046270;28;20057;-76
2021/10/31 06:12:12;;;;;;;59.58;31.05;;;10.10;99.90;;;;;;5045130;28;20091;-75
2021/10/31 06:14:38;;;;;;;57.20;29.00;;;10.00;99.90;;;;;;5045819;28;20098;-76
2021/10/31 06:17:05;;;;;;;60.72;29.70;;;10.10;99.90;;;;;;5027517;28;20060;-76
2021/10/31 06:19:33;;;;;;;58.17;30.58;;;10.10;99.90;;;;;;5027188;28;20049;-76
2021/10/31 06:22:00;;;;;;;69.07;30.27;;;10.10;99.90;;;;;;5045240;28;20045;-77
2021/10/31 06:24:27;;;;;;;68.20;32.33;;;10.10;99.90;;;;;;5027695;28;20478;-77
2021/10/31 06:26:54;;;;;;;67.68;31.05;;;10.10;99.90;;;;;;5027673;28;20469;-77
2021/10/31 06:29:20;;;;;;;75.55;33.00;;;10.10;99.90;;;;;;5031758;28;20040;-77
2021/10/31 06:31:47;;;;;;;69.38;31.85;;;10.10;99.90;;;;;;5047351;28;20115;-78
2021/10/31 06:34:14;;;;;;;75.22;35.08;;;10.00;99.90;;;;;;5049647;28;20049;-78
2021/10/31 06:36:41;;;;;;;70.28;33.20;;;10.10;99.90;;;;;;5031944;28;20048;-78
2021/10/31 06:39:08;;;;;;;73.47;35.15;;;10.10;99.90;;;;;;5048946;28;20053;-75
2021/10/31 06:41:35;;;;;;;81.82;35.78;;;10.10;99.90;;;;;;5023766;28;20040;-77
2021/10/31 06:44:06;;;;;;;75.78;33.63;;;10.10;99.90;;;;;;5052086;28;20060;-76
2021/10/31 06:46:33;;;;;;;77.82;35.30;;;10.10;99.90;;;;;;5017052;28;20530;-77
2021/10/31 06:49:00;;;;;;;84.72;37.13;;;10.20;99.90;;;;;;5035879;28;20505;-76
2021/10/31 06:51:27;;;;;;;80.72;36.92;;;10.20;99.90;;;;;;5051166;28;20501;-78
2021/10/31 06:53:55;;;;;;;76.75;35.10;;;10.20;99.90;;;;;;5050673;28;20091;-76
2021/10/31 06:56:25;;;;;;;81.03;35.53;;;10.20;99.90;;;;;;5049214;28;20044;-79
2021/10/31 06:58:52;;;;;;;76.53;35.53;;;10.20;99.90;;;;;;5020623;28;20049;-76
2021/10/31 07:01:21;;;;;;;66.95;32.97;;;10.10;99.90;;;;;;5050654;28;20098;-76
2021/10/31 07:03:48;;;;;;;69.93;33.75;;;10.10;99.90;;;;;;5029392;28;20057;-79
2021/10/31 07:06:16;;;;;;;67.50;33.28;;;10.10;99.90;;;;;;5028378;28;20040;-76
2021/10/31 07:08:44;;;;;;;71.53;35.88;;;10.10;99.90;;;;;;5050905;28;20447;-78
2021/10/31 07:11:14;;;;;;;67.25;33.72;;;10.10;99.90;;;;;;5048749;28;20270;-78
2021/10/31 07:13:40;;;;;;;67.63;33.78;;;10.10;99.90;;;;;;5032856;28;20056;-76
2021/10/31 07:16:08;;;;;;;66.40;32.17;;;10.10;99.90;;;;;;5030627;28;20239;-76
2021/10/31 07:18:34;;;;;;;66.82;33.88;;;10.20;99.90;;;;;;5015606;28;20610;-76
2021/10/31 07:21:02;;;;;;;57.20;30.40;;;10.10;99.90;;;;;;5027214;28;20057;-78
2021/10/31 07:23:30;;;;;;;61.72;30.55;;;10.20;99.90;;;;;;5049456;28;20442;-78
2021/10/31 07:25:57;;;;;;;57.33;29.67;;;10.20;99.90;;;;;;5048488;28;20049;-75
2021/10/31 07:28:23;;;;;;;58.28;31.67;;;10.20;99.90;;;;;;5031516;28;20045;-74
2021/10/31 07:30:51;;;;;;;55.40;29.00;;;10.30;99.90;;;;;;5050368;28;20064;-76
2021/10/31 07:33:18;;;;;;;55.25;29.77;;;10.30;99.90;;;;;;5064343;28;20071;-77
2021/10/31 07:35:45;;;;;;;52.53;27.27;;;10.40;99.90;;;;;;5049817;28;20414;-77
2021/10/31 07:38:12;;;;;;;53.65;29.42;;;10.50;99.90;;;;;;5048253;28;20049;-77
2021/10/31 07:40:40;;;;;;;52.70;28.75;;;10.50;99.90;;;;;;5048459;28;20096;-76
2021/10/31 07:43:07;;;;;;;47.10;26.70;;;10.50;99.90;;;;;;5032068;28;20068;-78
2021/10/31 07:45:39;;;;;;;48.13;26.10;;;10.70;99.90;;;;;;5049085;28;20060;-76
2021/10/31 07:48:07;;;;;;;51.38;28.02;;;10.60;99.90;;;;;;5030931;28;20402;-76
2021/10/31 07:50:34;;;;;;;44.75;25.83;;;10.60;99.90;;;;;;5047694;28;20041;-77
2021/10/31 07:53:07;;;;;;;49.13;27.27;;;10.70;99.90;;;;;;5030719;28;20103;-77
2021/10/31 07:55:35;;;;;;;50.25;26.80;;;10.80;99.90;;;;;;5030095;28;20044;-78
2021/10/31 07:58:04;;;;;;;47.00;25.70;;;10.80;99.90;;;;;;5047587;28;20804;-76
2021/10/31 08:00:32;;;;;;;46.78;27.08;;;10.80;99.90;;;;;;5013434;28;20049;-77
2021/10/31 08:02:59;;;;;;;44.13;24.65;;;10.90;99.90;;;;;;5030169;28;20050;-77
2021/10/31 08:05:27;;;;;;;39.47;24.27;;;10.90;99.90;;;;;;5021743;28;20049;-78
2021/10/31 08:07:55;;;;;;;43.45;24.77;;;10.90;99.90;;;;;;5056486;28;20053;-76
2021/10/31 08:10:22;;;;;;;34.42;22.73;;;11.10;99.90;;;;;;5045800;28;20053;-75
2021/10/31 08:12:49;;;;;;;37.53;22.63;;;11.20;99.90;;;;;;5048704;28;20576;-77
2021/10/31 08:15:16;;;;;;;33.00;22.20;;;11.40;99.90;;;;;;5029314;28;20465;-77
2021/10/31 08:17:43;;;;;;;31.90;21.50;;;11.50;99.90;;;;;;5030409;28;20057;-79
2021/10/31 08:20:10;;;;;;;32.40;21.20;;;11.60;99.90;;;;;;5047228;28;20122;-77
2021/10/31 08:22:37;;;;;;;31.63;19.27;;;11.90;99.90;;;;;;5047976;28;20111;-80
2021/10/31 08:25:04;;;;;;;27.38;18.02;;;12.00;99.90;;;;;;5029760;28;20064;-75
2021/10/31 08:27:32;;;;;;;26.27;18.67;;;12.10;99.90;;;;;;5029456;28;20057;-80
2021/10/31 08:29:59;;;;;;;27.65;17.83;;;12.10;99.90;;;;;;5044218;28;20110;-75
2021/10/31 08:32:27;;;;;;;26.63;18.80;;;12.20;99.90;;;;;;5029616;28;20098;-76
2021/10/31 08:34:54;;;;;;;26.35;17.40;;;12.20;99.90;;;;;;5029355;28;20175;-77
2021/10/31 08:37:21;;;;;;;26.92;18.08;;;12.20;99.90;;;;;;5044303;28;20041;-76
2021/10/31 08:39:48;;;;;;;25.88;17.65;;;12.20;99.90;;;;;;5010503;28;20479;-78
2021/10/31 08:42:15;;;;;;;26.17;17.70;;;12.30;99.90;;;;;;5030418;28;20045;-78
2021/10/31 08:44:42;;;;;;;26.50;17.17;;;12.30;99.90;;;;;;5030090;28;20107;-77
2021/10/31 08:47:09;;;;;;;23.00;15.93;;;12.40;99.90;;;;;;5013182;28;20056;-76
2021/10/31 08:49:36;;;;;;;23.92;17.00;;;12.60;99.90;;;;;;5046514;28;20068;-76
2021/10/31 08:52:05;;;;;;;21.50;16.23;;;12.70;99.90;;;;;;5028680;28;20045;-74
2021/10/31 08:54:37;;;;;;;21.98;16.20;;;12.70;99.90;;;;;;5046881;28;20052;-76
2021/10/31 08:57:06;;;;;;;22.95;15.13;;;12.60;99.90;;;;;;5012211;28;20072;-76
2021/10/31 08:59:33;;;;;;;21.58;14.50;;;12.50;99.90;;;;;;5041072;28;20079;-77
2021/10/31 09:02:01;;;;;;;21.27;13.75;;;12.60;99.90;;;;;;5039935;28;20060;-78
2021/10/31 09:04:29;;;;;;;19.88;12.98;;;12.70;99.90;;;;;;5025438;28;20132;-76
2021/10/31 09:06:55;;;;;;;17.42;12.68;;;12.70;99.90;;;;;;5028560;28;20490;-77
2021/10/31 09:09:24;;;;;;;17.45;12.70;;;12.80;99.90;;;;;;5028852;28;20059;-76
2021/10/31 09:11:51;;;;;;;21.05;13.05;;;12.80;99.90;;;;;;5036799;28;20045;-76
2021/10/31 09:14:19;;;;;;;18.00;12.77;;;12.90;99.90;;;;;;5047177;28;20068;-76
2021/10/31 09:16:48;;;;;;;18.40;12.82;;;13.00;99.90;;;;;;5045905;28;20303;-76
2021/10/31 09:19:17;;;;;;;16.75;12.43;;;13.00;99.90;;;;;;5047009;28;20077;-75
2021/10/31 09:21:46;;;;;;;16.98;13.00;;;13.00;99.90;;;;;;5045570;28;20053;-77
2021/10/31 09:24:13;;;;;;;16.33;12.45;;;13.10;99.90;;;;;;5046809;28;20549;-75
2021/10/31 09:26:40;;;;;;;17.38;13.10;;;13.20;99.90;;;;;;5045619;28;20427;-75
2021/10/31 09:29:07;;;;;;;15.73;13.35;;;13.30;99.90;;;;;;5028488;28;20049;-75
2021/10/31 09:31:35;;;;;;;16.17;12.02;;;13.30;99.90;;;;;;5016461;28;20053;-76
2021/10/31 09:34:01;;;;;;;16.63;11.38;;;13.40;99.90;;;;;;5035602;28;20056;-75
2021/10/31 09:36:28;;;;;;;13.52;12.02;;;13.30;99.90;;;;;;5025902;28;20112;-76
2021/10/31 09:38:56;;;;;;;16.42;12.80;;;13.20;99.90;;;;;;5015964;28;20055;-76
2021/10/31 09:41:24;;;;;;;12.80;10.75;;;13.20;99.90;;;;;;5010522;28;20052;-75
2021/10/31 09:43:59;;;;;;;18.63;13.07;;;13.20;99.90;;;;;;5046193;28;20064;-76
2021/10/31 09:46:26;;;;;;;17.17;12.40;;;13.20;99.90;;;;;;5027114;28;20099;-76
2021/10/31 09:48:53;;;;;;;16.45;11.55;;;13.20;99.90;;;;;;5046319;28;20106;-78
2021/10/31 09:51:21;;;;;;;15.40;12.40;;;13.10;99.90;;;;;;5027619;28;20107;-76
2021/10/31 09:53:48;;;;;;;13.70;11.80;;;13.10;99.90;;;;;;5043102;28;20049;-76
2021/10/31 09:56:16;;;;;;;15.07;12.48;;;13.10;99.90;;;;;;5042434;28;20045;-77
2021/10/31 09:58:44;;;;;;;16.80;12.65;;;13.10;99.90;;;;;;5011168;28;20053;-74
2021/10/31 10:04:32;;;;;;;16.70;12.75;;;13.20;99.90;;;;;;5045513;28;20403;-75
2021/10/31 10:07:01;;;;;;;13.98;11.32;;;13.30;99.90;;;;;;5060456;28;20068;-76
2021/10/31 10:09:30;;;;;;;14.18;11.90;;;13.30;99.90;;;;;;5011296;28;20179;-76
2021/10/31 10:12:14;;;;;;;13.07;11.05;;;13.40;99.90;;;;;;5043972;28;20415;-77
2021/10/31 10:14:47;;;;;;;16.55;12.43;;;13.50;99.90;;;;;;5028415;28;20056;-77
2021/10/31 10:17:14;;;;;;;15.93;12.02;;;13.70;99.90;;;;;;5026909;28;20061;-79
2021/10/31 10:19:54;;;;;;;15.35;11.73;;;13.80;99.90;;;;;;5044949;28;20574;-75
2021/10/31 10:22:23;;;;;;;15.02;10.80;;;13.80;99.90;;;;;;5026248;28;20049;-75
2021/10/31 10:25:00;;;;;;;12.73;11.40;;;13.90;99.90;;;;;;5045604;28;20119;-75
2021/10/31 10:27:33;;;;;;;13.68;11.27;;;13.90;99.90;;;;;;5043894;28;20060;-78
2021/10/31 10:30:14;;;;;;;11.77;10.50;;;13.80;99.90;;;;;;5027459;28;20052;-78
2021/10/31 10:32:51;;;;;;;13.82;10.77;;;13.80;99.90;;;;;;5005930;28;20053;-76
2021/10/31 10:35:21;;;;;;;13.13;11.10;;;13.80;99.90;;;;;;5046174;28;20041;-76
2021/10/31 10:37:49;;;;;;;15.65;11.82;;;13.70;99.90;;;;;;5045342;28;20049;-75
2021/10/31 10:40:28;;;;;;;16.95;10.73;;;13.60;99.90;;;;;;5044291;28;20055;-76
2021/10/31 10:42:59;;;;;;;15.60;10.63;;;13.60;99.90;;;;;;5044811;28;20470;-77
2021/10/31 10:45:31;;;;;;;14.57;12.07;;;13.60;99.90;;;;;;5009234;28;20040;-75
2021/10/31 10:48:02;;;;;;;16.52;13.60;;;13.60;99.90;;;;;;5027601;28;20313;-76
2021/10/31 10:50:39;;;;;;;18.33;13.30;;;13.50;99.90;;;;;;5045937;28;20057;-76
2021/10/31 10:53:17;;;;;;;22.08;14.75;;;13.50;99.90;;;;;;5028181;28;20118;-75
2021/10/31 10:55:44;;;;;;;18.45;14.70;;;13.60;99.90;;;;;;5026739;28;20065;-79
2021/10/31 10:58:14;;;;;;;21.77;15.57;;;13.50;99.90;;;;;;5046285;28;20057;-79
2021/10/31 11:00:43;;;;;;;20.17;16.17;;;13.40;99.90;;;;;;5007195;28;20053;-74
2021/10/31 11:03:15;;;;;;;21.85;16.17;;;13.40;99.90;;;;;;5028793;28;20202;-77
2021/10/31 11:05:44;;;;;;;19.45;14.50;;;13.40;99.90;;;;;;5045248;28;20469;-76
2021/10/31 11:08:15;;;;;;;19.75;15.18;;;13.50;99.90;;;;;;5026939;28;20099;-75
2021/10/31 11:10:46;;;;;;;17.83;14.05;;;13.60;99.90;;;;;;5005241;28;20136;-76
2021/10/31 11:13:13;;;;;;;16.63;12.90;;;13.60;99.90;;;;;;5027599;28;20126;-76
2021/10/31 11:15:40;;;;;;;14.55;12.75;;;13.80;99.90;;;;;;5029864;28;20057;-79
2021/10/31 11:18:08;;;;;;;16.92;13.07;;;13.90;99.90;;;;;;5048970;28;20054;-75
2021/10/31 11:20:39;;;;;;;17.05;12.63;;;14.00;99.90;;;;;;5049262;28;20583;-77
2021/10/31 11:23:08;;;;;;;18.80;11.80;;;13.90;99.90;;;;;;5031410;28;20053;-75
2021/10/31 11:25:37;;;;;;;13.57;12.10;;;13.80;99.90;;;;;;5029948;28;20048;-77
2021/10/31 11:28:08;;;;;;;18.30;12.70;;;13.80;99.90;;;;;;5048416;28;20484;-76
2021/10/31 11:30:36;;;;;;;18.23;13.85;;;13.80;99.90;;;;;;5046434;28;20049;-75
2021/10/31 11:33:04;;;;;;;16.52;12.80;;;13.80;99.90;;;;;;5049308;28;20045;-76
2021/10/31 11:35:32;;;;;;;17.80;11.65;;;13.90;99.90;;;;;;5049036;28;20053;-75
2021/10/31 11:38:03;;;;;;;14.18;11.85;;;14.00;99.90;;;;;;5030961;28;20076;-75
2021/10/31 11:40:32;;;;;;;15.57;11.93;;;14.00;99.90;;;;;;5047034;28;20063;-76
2021/10/31 11:43:02;;;;;;;15.23;11.30;;;14.10;99.90;;;;;;5026995;28;20079;-75
2021/10/31 11:45:34;;;;;;;14.75;11.55;;;14.00;99.90;;;;;;5036143;28;20470;-76
2021/10/31 11:48:14;;;;;;;15.25;11.43;;;14.10;99.90;;;;;;5013266;28;20041;-75
2021/10/31 11:50:59;;;;;;;14.80;11.13;;;14.10;99.90;;;;;;5048613;28;20048;-76
2021/10/31 11:53:30;;;;;;;11.85;10.60;;;14.20;99.90;;;;;;5029014;28;20065;-77
2021/10/31 11:56:00;;;;;;;11.50;9.90;;;14.20;99.90;;;;;;5047605;28;20314;-79
2021/10/31 11:58:33;;;;;;;11.75;10.43;;;14.30;99.90;;;;;;5014269;28;20499;-75
2021/10/31 12:01:05;;;;;;;12.38;10.07;;;14.50;99.90;;;;;;5047981;28;20053;-75
2021/10/31 12:03:32;;;;;;;11.27;9.02;;;14.60;99.90;;;;;;5048686;28;20400;-76
2021/10/31 12:06:22;;;;;;;12.52;10.27;;;14.60;99.90;;;;;;5036415;28;20357;-78
2021/10/31 12:09:00;;;;;;;11.30;9.30;;;14.70;99.90;;;;;;5029463;28;20053;-76
2021/10/31 12:11:30;;;;;;;11.38;9.13;;;14.70;99.90;;;;;;5047639;28;20045;-78
2021/10/31 12:13:58;;;;;;;12.48;8.35;;;14.80;99.90;;;;;;5048313;28;20068;-75
2021/10/31 12:16:26;;;;;;;11.38;8.73;;;14.90;99.90;;;;;;5046144;28;20056;-74
2021/10/31 12:19:08;;;;;;;9.15;7.28;;;15.00;99.90;;;;;;5047577;28;20063;-74
2021/10/31 12:21:37;;;;;;;9.68;7.88;;;15.10;99.90;;;;;;5047193;28;20064;-77
2021/10/31 12:24:13;;;;;;;8.50;7.35;;;15.10;99.90;;;;;;5029908;28;20572;-74
2021/10/31 12:26:48;;;;;;;7.30;6.60;;;15.10;99.90;;;;;;5045814;28;20502;-76
2021/10/31 12:29:19;;;;;;;7.85;6.38;;;15.10;99.90;;;;;;5028150;28;20057;-77
2021/10/31 12:31:58;;;;;;;6.95;6.15;;;15.20;99.90;;;;;;5046288;28;20730;-78
2021/10/31 12:34:32;;;;;;;5.63;5.13;;;15.20;99.90;;;;;;5046146;28;20342;-75
2021/10/31 12:37:00;;;;;;;6.63;6.03;;;15.20;99.90;;;;;;5036841;28;20052;-76
2021/10/31 12:39:31;;;;;;;8.48;7.13;;;15.20;99.90;;;;;;5045681;28;20099;-75
2021/10/31 12:42:18;;;;;;;7.55;5.95;;;15.20;99.90;;;;;;5032625;28;20055;-76
2021/10/31 12:45:14;;;;;;;6.90;6.20;;;15.10;99.90;;;;;;5029548;28;20110;-77